TAR745 EDDF-EGCC
Flight info
| Callsign | TAR745 |
|---|---|
| Flight time | N/A |
| Altitude | 34000 |
| Route | OBOKA2E/07C OBOKA Z29 TORNU DCT GALSO Q63 ERING L179 LAM UN57 WELIN T420 ELVOS |
| Aircraft | A320/M-SDE3FGHIRWY/LB1 |
Departure
| Time | 2026-04-14 16:30 |
|---|---|
| Airport | Frankfurt Main Airport (EDDF) |
Arrival
| Time | N/A |
|---|---|
| Airport | Manchester Airport (EGCC) |
| Time | Latitude | Longitude | Altitude | Speed | Heading |
|---|---|---|---|---|---|
| 2026-04-14 15:53 | 50.04737 | 8.56736 | 356 ft | 0 kts | 114° |
| 2026-04-14 16:11 | 50.04740 | 8.56726 | 356 ft | 4 kts | 116° |
| 2026-04-14 16:12 | 50.04753 | 8.56691 | 363 ft | 4 kts | 135° |
| 2026-04-14 16:12 | 50.04774 | 8.56672 | 360 ft | 4 kts | 190° |
| 2026-04-14 16:12 | 50.04781 | 8.56674 | 359 ft | 0 kts | 204° |
| 2026-04-14 16:17 | 50.04779 | 8.56672 | 359 ft | 2 kts | 204° |
| 2026-04-14 16:18 | 50.04762 | 8.56660 | 362 ft | 3 kts | 207° |
| 2026-04-14 16:18 | 50.04743 | 8.56631 | 365 ft | 9 kts | 227° |
| 2026-04-14 16:18 | 50.04694 | 8.56533 | 359 ft | 12 kts | 238° |
| 2026-04-14 16:18 | 50.04663 | 8.56421 | 356 ft | 11 kts | 249° |
| 2026-04-14 16:19 | 50.04637 | 8.56317 | 361 ft | 10 kts | 250° |
| 2026-04-14 16:19 | 50.04614 | 8.56218 | 363 ft | 10 kts | 250° |
| 2026-04-14 16:19 | 50.04591 | 8.56123 | 359 ft | 9 kts | 250° |
| 2026-04-14 16:19 | 50.04570 | 8.56033 | 363 ft | 9 kts | 249° |
| 2026-04-14 16:20 | 50.04533 | 8.55968 | 358 ft | 8 kts | 210° |
| 2026-04-14 16:20 | 50.04483 | 8.55938 | 363 ft | 7 kts | 197° |
| 2026-04-14 16:20 | 50.04438 | 8.55917 | 357 ft | 7 kts | 196° |
| 2026-04-14 16:20 | 50.04392 | 8.55913 | 356 ft | 7 kts | 173° |
| 2026-04-14 16:21 | 50.04344 | 8.55931 | 357 ft | 8 kts | 162° |
| 2026-04-14 16:21 | 50.04290 | 8.55957 | 359 ft | 9 kts | 166° |
| 2026-04-14 16:21 | 50.04232 | 8.55935 | 358 ft | 9 kts | 205° |
| 2026-04-14 16:21 | 50.04169 | 8.55935 | 360 ft | 10 kts | 171° |
| 2026-04-14 16:22 | 50.04107 | 8.55964 | 352 ft | 9 kts | 163° |
| 2026-04-14 16:22 | 50.04049 | 8.55931 | 354 ft | 10 kts | 230° |
| 2026-04-14 16:22 | 50.04011 | 8.55836 | 352 ft | 10 kts | 242° |
| 2026-04-14 16:22 | 50.03992 | 8.55718 | 358 ft | 13 kts | 251° |
| 2026-04-14 16:23 | 50.03956 | 8.55572 | 351 ft | 16 kts | 250° |
| 2026-04-14 16:23 | 50.03913 | 8.55386 | 349 ft | 21 kts | 251° |
| 2026-04-14 16:23 | 50.03860 | 8.55155 | 356 ft | 25 kts | 252° |
| 2026-04-14 16:23 | 50.03793 | 8.54882 | 358 ft | 29 kts | 250° |
| 2026-04-14 16:24 | 50.03738 | 8.54654 | 349 ft | 22 kts | 248° |
| 2026-04-14 16:24 | 50.03712 | 8.54543 | 348 ft | 10 kts | 251° |
| 2026-04-14 16:24 | 50.03686 | 8.54431 | 352 ft | 12 kts | 249° |
| 2026-04-14 16:24 | 50.03663 | 8.54343 | 350 ft | 7 kts | 239° |
| 2026-04-14 16:25 | 50.03631 | 8.54308 | 344 ft | 0 kts | 195° |
| 2026-04-14 16:25 | 50.03628 | 8.54307 | 344 ft | 1 kts | 192° |
| 2026-04-14 16:25 | 50.03621 | 8.54308 | 350 ft | 1 kts | 176° |
| 2026-04-14 16:25 | 50.03620 | 8.54308 | 349 ft | 0 kts | 175° |
| 2026-04-14 16:27 | 50.03619 | 8.54308 | 349 ft | 0 kts | 175° |
| 2026-04-14 16:27 | 50.03539 | 8.54352 | 347 ft | 24 kts | 155° |
| 2026-04-14 16:27 | 50.03504 | 8.54463 | 346 ft | 8 kts | 84° |
| 2026-04-14 16:28 | 50.03511 | 8.54501 | 350 ft | 0 kts | 69° |
| 2026-04-14 16:30 | 50.03565 | 8.54717 | 353 ft | 67 kts | 69° |
| 2026-04-14 16:30 | 50.03848 | 8.55901 | 352 ft | 160 kts | 69° |
| 2026-04-14 16:30 | 50.04258 | 8.57619 | 1343 ft | 168 kts | 69° |
| 2026-04-14 16:31 | 50.04663 | 8.59350 | 2492 ft | 171 kts | 68° |
| 2026-04-14 16:31 | 50.05094 | 8.61172 | 3093 ft | 190 kts | 67° |
| 2026-04-14 16:31 | 50.05900 | 8.62895 | 3576 ft | 209 kts | 34° |
| 2026-04-14 16:31 | 50.07304 | 8.63593 | 4382 ft | 218 kts | 1° |
| 2026-04-14 16:32 | 50.08840 | 8.63491 | 4849 ft | 221 kts | 357° |
| 2026-04-14 16:32 | 50.10377 | 8.63376 | 4983 ft | 224 kts | 358° |
| 2026-04-14 16:32 | 50.12072 | 8.63262 | 5010 ft | 256 kts | 358° |
| 2026-04-14 16:32 | 50.13877 | 8.63143 | 5012 ft | 261 kts | 358° |
| 2026-04-14 16:33 | 50.15695 | 8.63026 | 5009 ft | 262 kts | 358° |
| 2026-04-14 16:33 | 50.17522 | 8.62905 | 5011 ft | 263 kts | 358° |
| 2026-04-14 16:33 | 50.19347 | 8.62784 | 5009 ft | 263 kts | 358° |
| 2026-04-14 16:33 | 50.21155 | 8.62663 | 5006 ft | 263 kts | 358° |
| 2026-04-14 16:34 | 50.22982 | 8.62537 | 5006 ft | 263 kts | 358° |
| 2026-04-14 16:34 | 50.24811 | 8.62411 | 5012 ft | 263 kts | 358° |
| 2026-04-14 16:34 | 50.26639 | 8.62291 | 5010 ft | 263 kts | 358° |
| 2026-04-14 16:34 | 50.28456 | 8.61951 | 5009 ft | 264 kts | 347° |
| 2026-04-14 16:35 | 50.30185 | 8.60999 | 5008 ft | 264 kts | 334° |
| 2026-04-14 16:35 | 50.31743 | 8.59479 | 5010 ft | 264 kts | 322° |
| 2026-04-14 16:35 | 50.33059 | 8.57470 | 5013 ft | 265 kts | 309° |
| 2026-04-14 16:35 | 50.34072 | 8.55062 | 5015 ft | 265 kts | 297° |
| 2026-04-14 16:36 | 50.34744 | 8.52380 | 5013 ft | 266 kts | 289° |
| 2026-04-14 16:36 | 50.35333 | 8.49637 | 5015 ft | 266 kts | 289° |
| 2026-04-14 16:36 | 50.35923 | 8.46898 | 5017 ft | 265 kts | 289° |
| 2026-04-14 16:36 | 50.36514 | 8.44159 | 5013 ft | 265 kts | 289° |
| 2026-04-14 16:37 | 50.37107 | 8.41409 | 5143 ft | 271 kts | 288° |
| 2026-04-14 16:37 | 50.37572 | 8.38518 | 6240 ft | 273 kts | 279° |
| 2026-04-14 16:37 | 50.37709 | 8.35551 | 7429 ft | 274 kts | 265° |
| 2026-04-14 16:37 | 50.37366 | 8.32605 | 8515 ft | 277 kts | 252° |
| 2026-04-14 16:38 | 50.36822 | 8.29705 | 9639 ft | 280 kts | 253° |
| 2026-04-14 16:38 | 50.36685 | 8.26616 | 10626 ft | 292 kts | 275° |
| 2026-04-14 16:38 | 50.37337 | 8.23449 | 11089 ft | 321 kts | 292° |
| 2026-04-14 16:38 | 50.38302 | 8.20170 | 11669 ft | 339 kts | 294° |
| 2026-04-14 16:39 | 50.39316 | 8.16837 | 12525 ft | 346 kts | 294° |
| 2026-04-14 16:39 | 50.40364 | 8.13415 | 13452 ft | 351 kts | 294° |
| 2026-04-14 16:39 | 50.41438 | 8.09889 | 14342 ft | 356 kts | 294° |
| 2026-04-14 16:39 | 50.42486 | 8.06405 | 15155 ft | 360 kts | 294° |
| 2026-04-14 16:40 | 50.43551 | 8.02826 | 15971 ft | 364 kts | 293° |
| 2026-04-14 16:40 | 50.44623 | 7.99209 | 16813 ft | 368 kts | 293° |
| 2026-04-14 16:40 | 50.45705 | 7.95543 | 17625 ft | 372 kts | 293° |
| 2026-04-14 16:40 | 50.46443 | 7.93037 | 18158 ft | 375 kts | 292° |
| 2026-04-14 16:41 | 50.47543 | 7.89296 | 18894 ft | 380 kts | 292° |
| 2026-04-14 16:41 | 50.48657 | 7.85501 | 19609 ft | 383 kts | 292° |
| 2026-04-14 16:41 | 50.49776 | 7.81687 | 20331 ft | 386 kts | 292° |
| 2026-04-14 16:41 | 50.50887 | 7.77891 | 21025 ft | 389 kts | 292° |
| 2026-04-14 16:42 | 50.52018 | 7.74022 | 21732 ft | 392 kts | 292° |
| 2026-04-14 16:42 | 50.53157 | 7.70120 | 22425 ft | 395 kts | 292° |
| 2026-04-14 16:42 | 50.54307 | 7.66175 | 23116 ft | 398 kts | 291° |
| 2026-04-14 16:42 | 50.55464 | 7.62203 | 23780 ft | 401 kts | 291° |
| 2026-04-14 16:43 | 50.56631 | 7.58191 | 24311 ft | 404 kts | 291° |
| 2026-04-14 16:43 | 50.57808 | 7.54145 | 24831 ft | 408 kts | 292° |
| 2026-04-14 16:43 | 50.58921 | 7.50303 | 25317 ft | 411 kts | 291° |
| 2026-04-14 16:43 | 50.60095 | 7.46237 | 25798 ft | 415 kts | 291° |
| 2026-04-14 16:44 | 50.61292 | 7.42082 | 26275 ft | 418 kts | 292° |
| 2026-04-14 16:44 | 50.62503 | 7.37879 | 26760 ft | 422 kts | 292° |
| 2026-04-14 16:44 | 50.63726 | 7.33638 | 27243 ft | 425 kts | 292° |
| 2026-04-14 16:45 | 50.66179 | 7.25116 | 28177 ft | 432 kts | 292° |
| 2026-04-14 16:45 | 50.67427 | 7.20758 | 28648 ft | 436 kts | 292° |
| 2026-04-14 16:45 | 50.68662 | 7.16426 | 29106 ft | 439 kts | 291° |
| 2026-04-14 16:45 | 50.69928 | 7.11982 | 29543 ft | 443 kts | 291° |
| 2026-04-14 16:46 | 50.71193 | 7.07535 | 29985 ft | 446 kts | 292° |
| 2026-04-14 16:46 | 50.72454 | 7.03090 | 30387 ft | 448 kts | 291° |
| 2026-04-14 16:46 | 50.73735 | 6.98572 | 30743 ft | 451 kts | 291° |
| 2026-04-14 16:46 | 50.75012 | 6.94065 | 31090 ft | 454 kts | 291° |
| 2026-04-14 16:47 | 50.76311 | 6.89467 | 31447 ft | 456 kts | 291° |
| 2026-04-14 16:47 | 50.77589 | 6.84919 | 31787 ft | 459 kts | 291° |
| 2026-04-14 16:47 | 50.78885 | 6.80303 | 32284 ft | 458 kts | 291° |
| 2026-04-14 16:47 | 50.80184 | 6.75685 | 32760 ft | 457 kts | 291° |
| 2026-04-14 16:48 | 50.81476 | 6.71081 | 33225 ft | 457 kts | 291° |
| 2026-04-14 16:48 | 50.82742 | 6.66562 | 33688 ft | 456 kts | 291° |
| 2026-04-14 16:48 | 50.84026 | 6.61965 | 34157 ft | 456 kts | 291° |
| 2026-04-14 16:48 | 50.85304 | 6.57367 | 34554 ft | 456 kts | 291° |
| 2026-04-14 16:49 | 50.86579 | 6.52773 | 34975 ft | 455 kts | 291° |
| 2026-04-14 16:49 | 50.87849 | 6.48202 | 35399 ft | 453 kts | 291° |
| 2026-04-14 16:49 | 50.89121 | 6.43630 | 35828 ft | 452 kts | 290° |
| 2026-04-14 16:49 | 50.90385 | 6.39073 | 36137 ft | 452 kts | 291° |
| 2026-04-14 16:50 | 50.92890 | 6.30005 | 36221 ft | 447 kts | 290° |
| 2026-04-14 16:50 | 50.95362 | 6.20990 | 36220 ft | 446 kts | 290° |
| 2026-04-14 16:51 | 50.97824 | 6.11970 | 36221 ft | 445 kts | 290° |
| 2026-04-14 16:51 | 51.00279 | 6.02942 | 36220 ft | 445 kts | 290° |
| 2026-04-14 16:52 | 51.02732 | 5.93906 | 36223 ft | 445 kts | 290° |
| 2026-04-14 16:52 | 51.05177 | 5.84873 | 36229 ft | 445 kts | 289° |
| 2026-04-14 16:53 | 51.07672 | 5.75865 | 36224 ft | 447 kts | 296° |
| 2026-04-14 16:53 | 51.09468 | 5.71807 | 35571 ft | 454 kts | 309° |
| 2026-04-14 16:53 | 51.11958 | 5.68613 | 33926 ft | 470 kts | 329° |
| 2026-04-14 16:54 | 51.15072 | 5.66816 | 32007 ft | 485 kts | 348° |
| 2026-04-14 16:54 | 51.18430 | 5.66580 | 30359 ft | 492 kts | 6° |
| 2026-04-14 16:54 | 51.21737 | 5.67861 | 28719 ft | 489 kts | 24° |
| 2026-04-14 16:54 | 51.24627 | 5.70567 | 27295 ft | 478 kts | 42° |
| 2026-04-14 16:55 | 51.26832 | 5.74412 | 26002 ft | 463 kts | 60° |
| 2026-04-14 16:55 | 51.28207 | 5.78932 | 24767 ft | 445 kts | 77° |
| 2026-04-14 16:55 | 51.28820 | 5.83700 | 23498 ft | 433 kts | 86° |
| 2026-04-14 16:55 | 51.29284 | 5.88423 | 22105 ft | 428 kts | 86° |
| 2026-04-14 16:56 | 51.29742 | 5.93084 | 20889 ft | 420 kts | 85° |
| 2026-04-14 16:56 | 51.30193 | 5.97639 | 19729 ft | 412 kts | 85° |
| 2026-04-14 16:56 | 51.30637 | 6.02123 | 18637 ft | 404 kts | 85° |
| 2026-04-14 16:56 | 51.31074 | 6.06523 | 17433 ft | 398 kts | 85° |
| 2026-04-14 16:57 | 51.31505 | 6.10858 | 16286 ft | 391 kts | 85° |
| 2026-04-14 16:57 | 51.31923 | 6.15112 | 15200 ft | 384 kts | 84° |
| 2026-04-14 16:57 | 51.32330 | 6.19301 | 14157 ft | 378 kts | 84° |
| 2026-04-14 16:57 | 51.32729 | 6.23428 | 13090 ft | 372 kts | 84° |
| 2026-04-14 16:58 | 51.33111 | 6.27378 | 12751 ft | 345 kts | 84° |
| 2026-04-14 16:58 | 51.33466 | 6.31021 | 12532 ft | 321 kts | 85° |
| 2026-04-14 16:58 | 51.33802 | 6.34488 | 11980 ft | 311 kts | 85° |
| 2026-04-14 16:58 | 51.34105 | 6.37670 | 11362 ft | 306 kts | 85° |
| 2026-04-14 16:59 | 51.34424 | 6.41054 | 10687 ft | 302 kts | 85° |
| 2026-04-14 16:59 | 51.34733 | 6.44344 | 10030 ft | 298 kts | 85° |